sensor_id;sensor_type;location;lat;lon;timestamp;pressure;altitude;pressure_sealevel;temperature;humidity
70015;BME280;57358;51.094;6.760;2023-05-25T00:00:09;101804.06;;;7.22;100.00
70015;BME280;57358;51.094;6.760;2023-05-25T00:02:39;101870.41;;;7.56;100.00
70015;BME280;57358;51.094;6.760;2023-05-25T00:05:07;101834.28;;;7.35;100.00
70015;BME280;57358;51.094;6.760;2023-05-25T00:07:34;101835.09;;;7.37;100.00
70015;BME280;57358;51.094;6.760;2023-05-25T00:10:00;101884.88;;;7.71;100.00
70015;BME280;57358;51.094;6.760;2023-05-25T00:12:27;101887.47;;;7.73;100.00
70015;BME280;57358;51.094;6.760;2023-05-25T00:14:54;101889.25;;;7.71;100.00
70015;BME280;57358;51.094;6.760;2023-05-25T00:17:20;101794.84;;;7.05;100.00
70015;BME280;57358;51.094;6.760;2023-05-25T00:19:47;101895.47;;;7.65;100.00
70015;BME280;57358;51.094;6.760;2023-05-25T00:22:14;101889.41;;;7.63;100.00
70015;BME280;57358;51.094;6.760;2023-05-25T00:24:40;101883.38;;;7.59;100.00
70015;BME280;57358;51.094;6.760;2023-05-25T00:27:07;101758.78;;;6.82;100.00
70015;BME280;57358;51.094;6.760;2023-05-25T00:29:34;101882.63;;;7.54;100.00
70015;BME280;57358;51.094;6.760;2023-05-25T00:32:01;101888.94;;;7.44;100.00
70015;BME280;57358;51.094;6.760;2023-05-25T00:34:28;101881.81;;;7.52;100.00
70015;BME280;57358;51.094;6.760;2023-05-25T00:36:54;101881.03;;;7.47;100.00
70015;BME280;57358;51.094;6.760;2023-05-25T00:39:21;101867.38;;;7.34;100.00
70015;BME280;57358;51.094;6.760;2023-05-25T00:41:48;101857.97;;;7.26;100.00
70015;BME280;57358;51.094;6.760;2023-05-25T00:44:15;101871.69;;;7.35;100.00
70015;BME280;57358;51.094;6.760;2023-05-25T00:46:50;101876.88;;;7.37;100.00
70015;BME280;57358;51.094;6.760;2023-05-25T00:49:21;101874.38;;;7.32;100.00
70015;BME280;57358;51.094;6.760;2023-05-25T00:51:51;101802.19;;;6.86;100.00
70015;BME280;57358;51.094;6.760;2023-05-25T00:54:18;101881.34;;;7.32;100.00
70015;BME280;57358;51.094;6.760;2023-05-25T00:56:56;101878.78;;;7.29;100.00
70015;BME280;57358;51.094;6.760;2023-05-25T01:02:06;101890.22;;;7.23;100.00
70015;BME280;57358;51.094;6.760;2023-05-25T01:04:36;101898.13;;;7.20;100.00
70015;BME280;57358;51.094;6.760;2023-05-25T01:07:05;101883.41;;;7.16;100.00
70015;BME280;57358;51.094;6.760;2023-05-25T01:09:34;101879.06;;;7.13;100.00
70015;BME280;57358;51.094;6.760;2023-05-25T01:12:07;101891.28;;;7.11;100.00
70015;BME280;57358;51.094;6.760;2023-05-25T01:14:35;101892.22;;;7.09;100.00
70015;BME280;57358;51.094;6.760;2023-05-25T01:17:03;101888.75;;;7.08;100.00
70015;BME280;57358;51.094;6.760;2023-05-25T01:19:29;101885.19;;;7.12;100.00
70015;BME280;57358;51.094;6.760;2023-05-25T01:24:48;101792.56;;;6.40;100.00
70015;BME280;57358;51.094;6.760;2023-05-25T01:29:49;101890.78;;;6.92;100.00
70015;BME280;57358;51.094;6.760;2023-05-25T01:32:17;101896.94;;;6.88;100.00
70015;BME280;57358;51.094;6.760;2023-05-25T01:34:45;101888.41;;;6.78;100.00
70015;BME280;57358;51.094;6.760;2023-05-25T01:37:13;101897.03;;;6.84;100.00
70015;BME280;57358;51.094;6.760;2023-05-25T01:39:45;101883.22;;;6.75;100.00
70015;BME280;57358;51.094;6.760;2023-05-25T01:42:12;101813.75;;;6.22;100.00
70015;BME280;57358;51.094;6.760;2023-05-25T01:44:38;101901.47;;;6.77;100.00
70015;BME280;57358;51.094;6.760;2023-05-25T01:47:15;101905.88;;;6.75;100.00
70015;BME280;57358;51.094;6.760;2023-05-25T01:49:51;101907.75;;;6.65;100.00
70015;BME280;57358;51.094;6.760;2023-05-25T01:52:22;101777.78;;;5.85;100.00
70015;BME280;57358;51.094;6.760;2023-05-25T01:55:21;101903.47;;;6.61;100.00
70015;BME280;57358;51.094;6.760;2023-05-25T01:57:52;101914.81;;;6.60;100.00
70015;BME280;57358;51.094;6.760;2023-05-25T02:00:26;101914.81;;;6.58;100.00
70015;BME280;57358;51.094;6.760;2023-05-25T02:02:57;101891.50;;;6.49;100.00
70015;BME280;57358;51.094;6.760;2023-05-25T02:05:24;101897.69;;;6.44;100.00
70015;BME280;57358;51.094;6.760;2023-05-25T02:07:52;101906.28;;;6.50;100.00
70015;BME280;57358;51.094;6.760;2023-05-25T02:10:19;101816.00;;;5.86;100.00
70015;BME280;57358;51.094;6.760;2023-05-25T02:12:45;101774.69;;;5.59;100.00
70015;BME280;57358;51.094;6.760;2023-05-25T02:15:14;101685.09;;;5.12;100.00
70015;BME280;57358;51.094;6.760;2023-05-25T02:17:40;101903.78;;;6.41;100.00
70015;BME280;57358;51.094;6.760;2023-05-25T02:20:09;101903.84;;;6.39;100.00
70015;BME280;57358;51.094;6.760;2023-05-25T02:22:36;101816.88;;;5.83;100.00
70015;BME280;57358;51.094;6.760;2023-05-25T02:25:03;101930.78;;;6.38;100.00
70015;BME280;57358;51.094;6.760;2023-05-25T02:27:32;101899.56;;;6.35;100.00
70015;BME280;57358;51.094;6.760;2023-05-25T02:29:58;101886.66;;;6.26;100.00
70015;BME280;57358;51.094;6.760;2023-05-25T02:32:25;101844.44;;;6.01;100.00
70015;BME280;57358;51.094;6.760;2023-05-25T02:34:51;101907.38;;;6.35;100.00
70015;BME280;57358;51.094;6.760;2023-05-25T02:37:18;101747.28;;;5.32;100.00
70015;BME280;57358;51.094;6.760;2023-05-25T02:39:44;101913.59;;;6.25;100.00
70015;BME280;57358;51.094;6.760;2023-05-25T02:42:11;101899.88;;;6.14;100.00
70015;BME280;57358;51.094;6.760;2023-05-25T02:44:37;101760.44;;;5.22;100.00
70015;BME280;57358;51.094;6.760;2023-05-25T02:47:04;101882.81;;;5.90;100.00
70015;BME280;57358;51.094;6.760;2023-05-25T02:49:32;101789.94;;;5.20;100.00
70015;BME280;57358;51.094;6.760;2023-05-25T02:51:59;101921.69;;;6.05;100.00
70015;BME280;57358;51.094;6.760;2023-05-25T02:54:26;101920.91;;;6.00;100.00
70015;BME280;57358;51.094;6.760;2023-05-25T02:56:52;101920.91;;;6.02;100.00
70015;BME280;57358;51.094;6.760;2023-05-25T02:59:19;101859.72;;;5.60;100.00
70015;BME280;57358;51.094;6.760;2023-05-25T03:01:45;101929.63;;;5.97;100.00
70015;BME280;57358;51.094;6.760;2023-05-25T03:04:12;101931.34;;;5.98;100.00
70015;BME280;57358;51.094;6.760;2023-05-25T03:06:38;101876.25;;;5.59;100.00
70015;BME280;57358;51.094;6.760;2023-05-25T03:09:05;101915.84;;;5.85;100.00
70015;BME280;57358;51.094;6.760;2023-05-25T03:11:32;101931.31;;;6.00;100.00
70015;BME280;57358;51.094;6.760;2023-05-25T03:14:00;101952.09;;;6.08;100.00
70015;BME280;57358;51.094;6.760;2023-05-25T03:16:26;101951.25;;;6.06;100.00
70015;BME280;57358;51.094;6.760;2023-05-25T03:18:53;101916.78;;;5.80;100.00
70015;BME280;57358;51.094;6.760;2023-05-25T03:21:19;101955.63;;;6.02;100.00
70015;BME280;57358;51.094;6.760;2023-05-25T03:23:47;101946.16;;;5.95;100.00
70015;BME280;57358;51.094;6.760;2023-05-25T03:26:14;101953.13;;;5.91;100.00
70015;BME280;57358;51.094;6.760;2023-05-25T03:28:41;101870.38;;;5.40;100.00
70015;BME280;57358;51.094;6.760;2023-05-25T03:31:07;101967.88;;;5.95;100.00
70015;BME280;57358;51.094;6.760;2023-05-25T03:33:34;101961.78;;;5.93;100.00
70015;BME280;57358;51.094;6.760;2023-05-25T03:36:00;101962.66;;;5.95;100.00
70015;BME280;57358;51.094;6.760;2023-05-25T03:38:32;101954.84;;;5.92;100.00
70015;BME280;57358;51.094;6.760;2023-05-25T03:40:59;101892.72;;;5.62;100.00
70015;BME280;57358;51.094;6.760;2023-05-25T03:43:25;101956.50;;;6.01;100.00
70015;BME280;57358;51.094;6.760;2023-05-25T03:45:52;101971.09;;;6.16;100.00
70015;BME280;57358;51.094;6.760;2023-05-25T03:48:18;101907.25;;;5.79;100.00
70015;BME280;57358;51.094;6.760;2023-05-25T03:50:44;101899.47;;;5.76;100.00
70015;BME280;57358;51.094;6.760;2023-05-25T03:53:11;101974.34;;;6.32;100.00
70015;BME280;57358;51.094;6.760;2023-05-25T03:55:37;101983.84;;;6.34;100.00
70015;BME280;57358;51.094;6.760;2023-05-25T03:58:04;101903.63;;;5.91;100.00
70015;BME280;57358;51.094;6.760;2023-05-25T04:00:30;101951.75;;;6.29;100.00
70015;BME280;57358;51.094;6.760;2023-05-25T04:02:57;101816.47;;;5.49;100.00
70015;BME280;57358;51.094;6.760;2023-05-25T04:05:24;101996.44;;;6.65;100.00
70015;BME280;57358;51.094;6.760;2023-05-25T04:07:52;101950.44;;;6.61;100.00
70015;BME280;57358;51.094;6.760;2023-05-25T04:10:18;101999.63;;;7.37;100.00
70015;BME280;57358;51.094;6.760;2023-05-25T04:12:45;101953.22;;;7.51;100.00
70015;BME280;57358;51.094;6.760;2023-05-25T04:15:12;102003.94;;;8.28;100.00
70015;BME280;57358;51.094;6.760;2023-05-25T04:17:39;102006.59;;;8.67;100.00
70015;BME280;57358;51.094;6.760;2023-05-25T04:20:09;101972.06;;;8.87;100.00
70015;BME280;57358;51.094;6.760;2023-05-25T04:22:36;102006.06;;;9.57;100.00
70015;BME280;57358;51.094;6.760;2023-05-25T04:25:06;101968.69;;;9.82;100.00
70015;BME280;57358;51.094;6.760;2023-05-25T04:27:33;101945.41;;;10.01;100.00
70015;BME280;57358;51.094;6.760;2023-05-25T04:29:59;102000.41;;;10.90;100.00
70015;BME280;57358;51.094;6.760;2023-05-25T04:32:26;101893.13;;;10.53;100.00
70015;BME280;57358;51.094;6.760;2023-05-25T04:34:55;101979.72;;;11.33;100.00
70015;BME280;57358;51.094;6.760;2023-05-25T04:37:22;101983.03;;;11.38;100.00
70015;BME280;57358;51.094;6.760;2023-05-25T04:39:52;101883.31;;;10.58;100.00
70015;BME280;57358;51.094;6.760;2023-05-25T04:42:19;101943.16;;;10.75;97.36
70015;BME280;57358;51.094;6.760;2023-05-25T04:44:49;101893.28;;;11.25;95.67
70015;BME280;57358;51.094;6.760;2023-05-25T04:47:21;101896.88;;;11.46;90.70
70015;BME280;57358;51.094;6.760;2023-05-25T04:49:47;101914.75;;;11.36;89.01
70015;BME280;57358;51.094;6.760;2023-05-25T04:52:14;101918.91;;;11.67;87.79
70015;BME280;57358;51.094;6.760;2023-05-25T04:54:40;101865.03;;;11.30;85.83
70015;BME280;57358;51.094;6.760;2023-05-25T04:57:08;101889.22;;;11.87;86.19
70015;BME280;57358;51.094;6.760;2023-05-25T04:59:35;101915.16;;;12.42;84.19
70015;BME280;57358;51.094;6.760;2023-05-25T05:02:01;101884.13;;;12.06;82.43
70015;BME280;57358;51.094;6.760;2023-05-25T05:04:28;101835.84;;;11.14;83.42
70015;BME280;57358;51.094;6.760;2023-05-25T05:06:54;101887.88;;;11.53;85.73
70015;BME280;57358;51.094;6.760;2023-05-25T05:09:24;101925.31;;;12.07;84.97
70015;BME280;57358;51.094;6.760;2023-05-25T05:11:50;101795.41;;;12.10;84.01
70015;BME280;57358;51.094;6.760;2023-05-25T05:14:17;101879.66;;;13.34;81.41
70015;BME280;57358;51.094;6.760;2023-05-25T05:16:43;101775.28;;;12.29;79.05
70015;BME280;57358;51.094;6.760;2023-05-25T05:19:10;101738.00;;;11.75;80.39
70015;BME280;57358;51.094;6.760;2023-05-25T05:21:36;101790.84;;;12.35;80.85
70015;BME280;57358;51.094;6.760;2023-05-25T05:24:02;101794.41;;;12.94;79.46
70015;BME280;57358;51.094;6.760;2023-05-25T05:26:29;101893.63;;;14.31;77.85
70015;BME280;57358;51.094;6.760;2023-05-25T05:28:59;101855.66;;;15.04;75.25
70015;BME280;57358;51.094;6.760;2023-05-25T05:31:26;101812.91;;;15.45;72.78
70015;BME280;57358;51.094;6.760;2023-05-25T05:33:52;101830.09;;;16.31;70.63
70015;BME280;57358;51.094;6.760;2023-05-25T05:36:19;101660.25;;;15.77;67.64
70015;BME280;57358;51.094;6.760;2023-05-25T05:38:45;101677.00;;;16.08;65.85
70015;BME280;57358;51.094;6.760;2023-05-25T05:41:12;101614.75;;;15.40;66.55
70015;BME280;57358;51.094;6.760;2023-05-25T05:43:42;101626.38;;;15.68;66.13
70015;BME280;57358;51.094;6.760;2023-05-25T05:46:11;101748.03;;;16.46;66.89
70015;BME280;57358;51.094;6.760;2023-05-25T05:48:37;101627.16;;;15.70;66.11
70015;BME280;57358;51.094;6.760;2023-05-25T05:51:04;101670.19;;;15.73;65.81
70015;BME280;57358;51.094;6.760;2023-05-25T05:53:31;101679.31;;;16.43;65.08
70015;BME280;57358;51.094;6.760;2023-05-25T05:55:58;101608.69;;;15.99;64.81
70015;BME280;57358;51.094;6.760;2023-05-25T05:58:25;101661.88;;;16.53;64.80
70015;BME280;57358;51.094;6.760;2023-05-25T06:00:52;101687.69;;;15.76;66.33
70015;BME280;57358;51.094;6.760;2023-05-25T06:03:19;101596.16;;;15.42;66.29
70015;BME280;57358;51.094;6.760;2023-05-25T06:05:46;101579.66;;;15.83;65.43
70015;BME280;57358;51.094;6.760;2023-05-25T06:08:13;101667.28;;;16.37;65.71
70015;BME280;57358;51.094;6.760;2023-05-25T06:10:42;101701.66;;;16.82;65.11
70015;BME280;57358;51.094;6.760;2023-05-25T06:13:08;101638.59;;;16.87;63.90
70015;BME280;57358;51.094;6.760;2023-05-25T06:15:35;101553.47;;;15.92;64.56
70015;BME280;57358;51.094;6.760;2023-05-25T06:18:02;101682.91;;;16.56;64.95
70015;BME280;57358;51.094;6.760;2023-05-25T06:20:28;101713.81;;;15.50;67.74
70015;BME280;57358;51.094;6.760;2023-05-25T06:22:55;101694.00;;;14.78;69.28
70015;BME280;57358;51.094;6.760;2023-05-25T06:25:22;101761.03;;;14.25;72.33
70015;BME280;57358;51.094;6.760;2023-05-25T06:27:49;101818.03;;;14.29;74.19
70015;BME280;57358;51.094;6.760;2023-05-25T06:30:15;101798.91;;;14.06;75.23
70015;BME280;57358;51.094;6.760;2023-05-25T06:32:42;101843.72;;;14.08;77.14
70015;BME280;57358;51.094;6.760;2023-05-25T06:35:08;101907.47;;;14.54;77.81
70015;BME280;57358;51.094;6.760;2023-05-25T06:37:38;101785.78;;;13.68;75.92
70015;BME280;57358;51.094;6.760;2023-05-25T06:40:05;101895.63;;;14.26;76.18
70015;BME280;57358;51.094;6.760;2023-05-25T06:42:34;101897.81;;;14.35;75.98
70015;BME280;57358;51.094;6.760;2023-05-25T06:45:01;101848.16;;;13.88;76.29
70015;BME280;57358;51.094;6.760;2023-05-25T06:47:27;101872.00;;;14.23;75.40
70015;BME280;57358;51.094;6.760;2023-05-25T06:49:56;101768.47;;;13.63;75.58
70015;BME280;57358;51.094;6.760;2023-05-25T06:52:23;101888.06;;;14.19;76.50
70015;BME280;57358;51.094;6.760;2023-05-25T06:54:50;101887.84;;;14.23;76.61
70015;BME280;57358;51.094;6.760;2023-05-25T06:57:16;101823.19;;;13.76;77.22
70015;BME280;57358;51.094;6.760;2023-05-25T06:59:43;101852.81;;;13.83;77.36
70015;BME280;57358;51.094;6.760;2023-05-25T07:02:09;101805.69;;;13.75;76.58
70015;BME280;57358;51.094;6.760;2023-05-25T07:04:36;101918.78;;;14.58;75.70
70015;BME280;57358;51.094;6.760;2023-05-25T07:07:03;101922.66;;;14.68;76.35
70015;BME280;57358;51.094;6.760;2023-05-25T07:09:29;101864.53;;;14.14;75.43
70015;BME280;57358;51.094;6.760;2023-05-25T07:11:56;101837.75;;;13.66;77.25
70015;BME280;57358;51.094;6.760;2023-05-25T07:14:22;101827.50;;;13.79;75.92
70015;BME280;57358;51.094;6.760;2023-05-25T07:16:49;101843.22;;;14.00;76.04
70015;BME280;57358;51.094;6.760;2023-05-25T07:19:15;101886.06;;;14.41;74.11
70015;BME280;57358;51.094;6.760;2023-05-25T07:21:42;101894.41;;;14.51;74.48
70015;BME280;57358;51.094;6.760;2023-05-25T07:24:08;101791.41;;;13.97;74.14
70015;BME280;57358;51.094;6.760;2023-05-25T07:26:35;101907.44;;;14.73;74.36
70015;BME280;57358;51.094;6.760;2023-05-25T07:29:01;101829.28;;;14.32;73.39
70015;BME280;57358;51.094;6.760;2023-05-25T07:31:28;101892.09;;;14.97;72.73
70015;BME280;57358;51.094;6.760;2023-05-25T07:33:54;101820.53;;;14.49;72.68
70015;BME280;57358;51.094;6.760;2023-05-25T07:36:21;101853.16;;;14.83;72.71
70015;BME280;57358;51.094;6.760;2023-05-25T07:38:50;101890.69;;;15.07;72.88
70015;BME280;57358;51.094;6.760;2023-05-25T07:41:17;101825.44;;;14.57;72.44
70015;BME280;57358;51.094;6.760;2023-05-25T07:43:43;101791.38;;;14.51;71.27
70015;BME280;57358;51.094;6.760;2023-05-25T07:46:09;101753.63;;;14.49;70.58
70015;BME280;57358;51.094;6.760;2023-05-25T07:48:36;101875.69;;;15.41;70.76
70015;BME280;57358;51.094;6.760;2023-05-25T07:51:03;101871.25;;;15.75;69.82
70015;BME280;57358;51.094;6.760;2023-05-25T07:53:29;101845.25;;;15.50;69.42
70015;BME280;57358;51.094;6.760;2023-05-25T07:55:56;101818.25;;;15.11;69.50
70015;BME280;57358;51.094;6.760;2023-05-25T07:58:22;101867.69;;;15.59;69.87
70015;BME280;57358;51.094;6.760;2023-05-25T08:00:49;101882.69;;;16.07;69.27
70015;BME280;57358;51.094;6.760;2023-05-25T08:03:15;101596.50;;;14.73;67.22
70015;BME280;57358;51.094;6.760;2023-05-25T08:05:43;101777.91;;;15.87;66.09
70015;BME280;57358;51.094;6.760;2023-05-25T08:08:10;101757.50;;;15.73;66.71
70015;BME280;57358;51.094;6.760;2023-05-25T08:10:36;101794.31;;;15.94;66.74
70015;BME280;57358;51.094;6.760;2023-05-25T08:13:03;101800.81;;;15.72;67.59
70015;BME280;57358;51.094;6.760;2023-05-25T08:15:29;101834.66;;;16.13;67.64
70015;BME280;57358;51.094;6.760;2023-05-25T08:17:56;101796.47;;;16.18;65.96
70015;BME280;57358;51.094;6.760;2023-05-25T08:20:23;101633.56;;;15.35;65.91
70015;BME280;57358;51.094;6.760;2023-05-25T08:22:52;101697.66;;;15.71;65.31
70015;BME280;57358;51.094;6.760;2023-05-25T08:25:19;101744.16;;;15.91;65.54
70015;BME280;57358;51.094;6.760;2023-05-25T08:27:46;101696.44;;;15.14;66.03
70015;BME280;57358;51.094;6.760;2023-05-25T08:30:13;101721.50;;;15.23;66.65
70015;BME280;57358;51.094;6.760;2023-05-25T08:32:39;101735.75;;;15.68;65.47
70015;BME280;57358;51.094;6.760;2023-05-25T08:35:06;101627.41;;;15.19;64.43
70015;BME280;57358;51.094;6.760;2023-05-25T08:37:33;101737.69;;;15.65;65.31
70015;BME280;57358;51.094;6.760;2023-05-25T08:40:00;101581.03;;;15.13;62.80
70015;BME280;57358;51.094;6.760;2023-05-25T08:42:28;101781.66;;;15.83;64.86
70015;BME280;57358;51.094;6.760;2023-05-25T08:44:55;101687.78;;;15.59;64.31
70015;BME280;57358;51.094;6.760;2023-05-25T08:47:22;101766.47;;;16.62;63.42
70015;BME280;57358;51.094;6.760;2023-05-25T08:49:48;101779.41;;;16.82;63.47
70015;BME280;57358;51.094;6.760;2023-05-25T08:52:20;101654.31;;;16.04;63.40
70015;BME280;57358;51.094;6.760;2023-05-25T08:54:49;101733.00;;;16.89;61.96
70015;BME280;57358;51.094;6.760;2023-05-25T08:57:23;101686.03;;;16.48;61.84
70015;BME280;57358;51.094;6.760;2023-05-25T08:59:59;101681.38;;;16.38;62.09
70015;BME280;57358;51.094;6.760;2023-05-25T09:02:59;101731.91;;;16.49;62.43
70015;BME280;57358;51.094;6.760;2023-05-25T09:05:26;101714.41;;;16.75;61.60
70015;BME280;57358;51.094;6.760;2023-05-25T09:07:53;101548.09;;;16.08;60.40
70015;BME280;57358;51.094;6.760;2023-05-25T09:10:22;101696.53;;;16.79;61.08
70015;BME280;57358;51.094;6.760;2023-05-25T09:12:50;101661.50;;;16.30;61.01
70015;BME280;57358;51.094;6.760;2023-05-25T09:15:17;101759.69;;;16.27;63.22
70015;BME280;57358;51.094;6.760;2023-05-25T09:17:43;101771.56;;;16.06;62.94
70015;BME280;57358;51.094;6.760;2023-05-25T09:20:10;101730.56;;;16.27;62.14
70015;BME280;57358;51.094;6.760;2023-05-25T09:22:40;101656.41;;;15.83;62.29
70015;BME280;57358;51.094;6.760;2023-05-25T09:25:07;101784.56;;;16.25;62.98
70015;BME280;57358;51.094;6.760;2023-05-25T09:27:35;101751.97;;;16.39;61.45
70015;BME280;57358;51.094;6.760;2023-05-25T09:30:05;101695.72;;;16.19;61.10
70015;BME280;57358;51.094;6.760;2023-05-25T09:32:32;101640.81;;;15.00;62.61
70015;BME280;57358;51.094;6.760;2023-05-25T09:35:09;101762.97;;;15.86;62.25
70015;BME280;57358;51.094;6.760;2023-05-25T09:37:36;101795.22;;;15.93;63.76
70015;BME280;57358;51.094;6.760;2023-05-25T09:40:04;101708.50;;;15.66;62.84
70015;BME280;57358;51.094;6.760;2023-05-25T09:42:32;101735.38;;;15.90;62.13
70015;BME280;57358;51.094;6.760;2023-05-25T09:44:59;101670.31;;;16.31;60.04
70015;BME280;57358;51.094;6.760;2023-05-25T09:47:26;101653.63;;;16.00;60.62
70015;BME280;57358;51.094;6.760;2023-05-25T09:49:55;101689.16;;;16.41;60.01
70015;BME280;57358;51.094;6.760;2023-05-25T09:52:22;101720.22;;;16.82;59.04
70015;BME280;57358;51.094;6.760;2023-05-25T09:54:49;101738.78;;;16.96;59.39
70015;BME280;57358;51.094;6.760;2023-05-25T09:57:18;101745.50;;;17.02;59.60
70015;BME280;57358;51.094;6.760;2023-05-25T09:59:45;101715.78;;;16.97;59.16
70015;BME280;57358;51.094;6.760;2023-05-25T10:02:13;101699.94;;;16.66;59.16
70015;BME280;57358;51.094;6.760;2023-05-25T10:04:40;101723.84;;;16.22;60.13
70015;BME280;57358;51.094;6.760;2023-05-25T10:07:07;101905.25;;;16.61;63.14
70015;BME280;57358;51.094;6.760;2023-05-25T10:09:38;101766.00;;;16.69;59.94
70015;BME280;57358;51.094;6.760;2023-05-25T10:12:09;101763.22;;;16.28;60.52
70015;BME280;57358;51.094;6.760;2023-05-25T10:14:37;101706.66;;;16.43;58.82
70015;BME280;57358;51.094;6.760;2023-05-25T10:17:05;101737.69;;;16.41;60.26
70015;BME280;57358;51.094;6.760;2023-05-25T10:19:37;101696.53;;;16.50;59.15
70015;BME280;57358;51.094;6.760;2023-05-25T10:22:14;101745.75;;;17.11;58.85
70015;BME280;57358;51.094;6.760;2023-05-25T10:24:58;101718.56;;;17.22;58.13
70015;BME280;57358;51.094;6.760;2023-05-25T10:27:33;101831.78;;;17.22;59.99
70015;BME280;57358;51.094;6.760;2023-05-25T10:30:05;101777.81;;;17.08;59.36
70015;BME280;57358;51.094;6.760;2023-05-25T10:32:32;101836.41;;;17.47;59.50
70015;BME280;57358;51.094;6.760;2023-05-25T10:35:00;101684.88;;;17.37;56.75
70015;BME280;57358;51.094;6.760;2023-05-25T10:37:29;101778.31;;;17.28;58.71
70015;BME280;57358;51.094;6.760;2023-05-25T10:39:56;101663.53;;;16.84;57.60
70015;BME280;57358;51.094;6.760;2023-05-25T10:42:24;101751.66;;;17.17;57.91
70015;BME280;57358;51.094;6.760;2023-05-25T10:44:51;101727.81;;;17.02;57.77
70015;BME280;57358;51.094;6.760;2023-05-25T10:47:18;101649.13;;;16.45;57.66
70015;BME280;57358;51.094;6.760;2023-05-25T10:49:53;101781.91;;;16.69;59.24
70015;BME280;57358;51.094;6.760;2023-05-25T10:52:20;101807.63;;;16.98;59.81
70015;BME280;57358;51.094;6.760;2023-05-25T10:54:47;101825.25;;;17.13;59.24
70015;BME280;57358;51.094;6.760;2023-05-25T10:57:19;101763.06;;;16.60;59.48
70015;BME280;57358;51.094;6.760;2023-05-25T11:00:02;101784.72;;;16.82;59.29
70015;BME280;57358;51.094;6.760;2023-05-25T11:02:49;101755.63;;;17.09;59.08
70015;BME280;57358;51.094;6.760;2023-05-25T11:07:58;101836.16;;;17.23;59.15
70015;BME280;57358;51.094;6.760;2023-05-25T11:13:33;101833.53;;;16.78;59.90
70015;BME280;57358;51.094;6.760;2023-05-25T11:18:55;101844.50;;;17.02;59.79
70015;BME280;57358;51.094;6.760;2023-05-25T11:23:59;101784.44;;;16.42;59.96
70015;BME280;57358;51.094;6.760;2023-05-25T11:26:32;101831.28;;;16.42;60.32
70015;BME280;57358;51.094;6.760;2023-05-25T11:29:00;101888.63;;;17.03;60.29
70015;BME280;57358;51.094;6.760;2023-05-25T11:31:36;101789.09;;;16.67;59.22
70015;BME280;57358;51.094;6.760;2023-05-25T11:34:08;101817.97;;;16.88;59.45
70015;BME280;57358;51.094;6.760;2023-05-25T11:36:37;101742.31;;;16.07;60.05
70015;BME280;57358;51.094;6.760;2023-05-25T11:39:04;101835.78;;;15.93;62.24
70015;BME280;57358;51.094;6.760;2023-05-25T11:41:48;101876.75;;;15.54;63.28
70015;BME280;57358;51.094;6.760;2023-05-25T11:44:24;101910.97;;;16.07;62.54
70015;BME280;57358;51.094;6.760;2023-05-25T11:46:53;101882.69;;;16.07;62.23
70015;BME280;57358;51.094;6.760;2023-05-25T11:49:23;101886.38;;;16.51;61.28
70015;BME280;57358;51.094;6.760;2023-05-25T11:51:52;101796.66;;;16.45;59.90
70015;BME280;57358;51.094;6.760;2023-05-25T11:54:26;101578.31;;;14.99;59.78
70015;BME280;57358;51.094;6.760;2023-05-25T11:56:54;101894.97;;;16.24;61.94
70015;BME280;57358;51.094;6.760;2023-05-25T11:59:25;101871.50;;;16.02;62.16
70015;BME280;57358;51.094;6.760;2023-05-25T12:02:00;101899.88;;;16.00;62.74
70015;BME280;57358;51.094;6.760;2023-05-25T12:04:27;101818.25;;;15.43;62.21
70015;BME280;57358;51.094;6.760;2023-05-25T12:07:05;101910.53;;;15.99;62.21
70015;BME280;57358;51.094;6.760;2023-05-25T12:09:33;101958.63;;;16.07;63.48
70015;BME280;57358;51.094;6.760;2023-05-25T12:12:02;102006.03;;;16.59;63.79
70015;BME280;57358;51.094;6.760;2023-05-25T12:14:29;101857.06;;;16.08;62.05
70015;BME280;57358;51.094;6.760;2023-05-25T12:16:55;101949.56;;;16.43;62.74
70015;BME280;57358;51.094;6.760;2023-05-25T12:19:23;101892.31;;;16.40;61.98
70015;BME280;57358;51.094;6.760;2023-05-25T12:21:49;101872.66;;;16.28;61.02
70015;BME280;57358;51.094;6.760;2023-05-25T12:24:17;101813.94;;;16.06;60.85
70015;BME280;57358;51.094;6.760;2023-05-25T12:26:50;101827.06;;;16.07;60.77
70015;BME280;57358;51.094;6.760;2023-05-25T12:29:22;101829.28;;;15.51;62.18
70015;BME280;57358;51.094;6.760;2023-05-25T12:31:50;101925.66;;;15.97;62.58
70015;BME280;57358;51.094;6.760;2023-05-25T12:34:18;101905.84;;;16.04;63.16
70015;BME280;57358;51.094;6.760;2023-05-25T12:36:49;101863.00;;;16.27;61.33
70015;BME280;57358;51.094;6.760;2023-05-25T12:41:55;101740.19;;;15.84;60.10
70015;BME280;57358;51.094;6.760;2023-05-25T12:44:27;101916.25;;;16.99;60.38
70015;BME280;57358;51.094;6.760;2023-05-25T12:47:20;101732.72;;;16.21;59.49
70015;BME280;57358;51.094;6.760;2023-05-25T12:50:13;101938.47;;;17.12;60.34
70015;BME280;57358;51.094;6.760;2023-05-25T12:52:41;101864.00;;;17.01;59.21
70015;BME280;57358;51.094;6.760;2023-05-25T12:55:22;101874.97;;;16.65;59.79
70015;BME280;57358;51.094;6.760;2023-05-25T12:58:03;101776.31;;;16.90;57.98
70015;BME280;57358;51.094;6.760;2023-05-25T13:00:33;101784.31;;;16.74;58.24
70015;BME280;57358;51.094;6.760;2023-05-25T13:03:00;101873.47;;;16.75;60.30
70015;BME280;57358;51.094;6.760;2023-05-25T13:05:28;101804.06;;;16.54;59.16
70015;BME280;57358;51.094;6.760;2023-05-25T13:07:56;101853.97;;;17.06;58.72
70015;BME280;57358;51.094;6.760;2023-05-25T13:10:23;101787.03;;;16.58;58.77
70015;BME280;57358;51.094;6.760;2023-05-25T13:12:51;101820.75;;;16.70;59.56
70015;BME280;57358;51.094;6.760;2023-05-25T13:15:19;101827.56;;;16.74;59.39
70015;BME280;57358;51.094;6.760;2023-05-25T13:17:48;101833.03;;;16.71;59.30